sensor_id;sensor_type;location;lat;lon;timestamp;pressure;altitude;pressure_sealevel;temperature;humidity
41467;BME280;27205;53.690;19.948;2023-03-19T00:01:13;99976.47;;;7.56;50.79
41467;BME280;27205;53.690;19.948;2023-03-19T00:06:18;99975.11;;;7.47;50.86
41467;BME280;27205;53.690;19.948;2023-03-19T00:11:22;99974.10;;;7.38;50.80
41467;BME280;27205;53.690;19.948;2023-03-19T00:16:25;99978.41;;;7.27;50.82
41467;BME280;27205;53.690;19.948;2023-03-19T00:21:29;99978.80;;;7.17;51.15
41467;BME280;27205;53.690;19.948;2023-03-19T00:26:35;99980.30;;;7.03;51.29
41467;BME280;27205;53.690;19.948;2023-03-19T00:31:39;99974.64;;;6.90;51.39
41467;BME280;27205;53.690;19.948;2023-03-19T00:36:44;99974.52;;;6.79;51.59
41467;BME280;27205;53.690;19.948;2023-03-19T00:41:47;99971.39;;;6.68;51.74
41467;BME280;27205;53.690;19.948;2023-03-19T00:46:52;99974.82;;;6.54;52.01
41467;BME280;27205;53.690;19.948;2023-03-19T00:51:55;99976.40;;;6.42;52.13
41467;BME280;27205;53.690;19.948;2023-03-19T00:56:59;99982.82;;;6.37;52.39
41467;BME280;27205;53.690;19.948;2023-03-19T01:02:03;99982.00;;;6.31;52.41
41467;BME280;27205;53.690;19.948;2023-03-19T01:07:06;99988.23;;;6.24;52.72
41467;BME280;27205;53.690;19.948;2023-03-19T01:12:10;99982.75;;;6.14;52.80
41467;BME280;27205;53.690;19.948;2023-03-19T01:17:13;99980.92;;;6.08;53.05
41467;BME280;27205;53.690;19.948;2023-03-19T01:22:16;99987.91;;;6.10;53.19
41467;BME280;27205;53.690;19.948;2023-03-19T01:27:20;99997.05;;;6.15;52.95
41467;BME280;27205;53.690;19.948;2023-03-19T01:32:24;100000.17;;;6.22;53.19
41467;BME280;27205;53.690;19.948;2023-03-19T01:37:28;99989.91;;;6.31;53.27
41467;BME280;27205;53.690;19.948;2023-03-19T01:42:32;99981.59;;;6.32;53.75
41467;BME280;27205;53.690;19.948;2023-03-19T01:47:36;99986.98;;;6.43;53.77
41467;BME280;27205;53.690;19.948;2023-03-19T01:52:41;99986.55;;;6.44;54.07
41467;BME280;27205;53.690;19.948;2023-03-19T01:57:44;99987.50;;;6.49;54.01
41467;BME280;27205;53.690;19.948;2023-03-19T02:02:51;99989.66;;;6.54;54.04
41467;BME280;27205;53.690;19.948;2023-03-19T02:07:59;99993.33;;;6.59;54.26
41467;BME280;27205;53.690;19.948;2023-03-19T02:13:04;99998.27;;;6.54;54.42
41467;BME280;27205;53.690;19.948;2023-03-19T02:18:08;99989.26;;;6.50;54.30
41467;BME280;27205;53.690;19.948;2023-03-19T02:28:21;99991.28;;;6.46;54.81
41467;BME280;27205;53.690;19.948;2023-03-19T02:33:26;99984.83;;;6.40;54.79
41467;BME280;27205;53.690;19.948;2023-03-19T02:38:31;99984.08;;;6.34;54.84
41467;BME280;27205;53.690;19.948;2023-03-19T02:43:37;99985.79;;;6.32;55.06
41467;BME280;27205;53.690;19.948;2023-03-19T02:48:41;99991.00;;;6.33;55.07
41467;BME280;27205;53.690;19.948;2023-03-19T02:53:45;99988.06;;;6.29;55.47
41467;BME280;27205;53.690;19.948;2023-03-19T02:58:48;99993.63;;;6.21;55.60
41467;BME280;27205;53.690;19.948;2023-03-19T03:03:51;99997.81;;;6.13;55.69
41467;BME280;27205;53.690;19.948;2023-03-19T03:08:55;99993.69;;;6.08;55.88
41467;BME280;27205;53.690;19.948;2023-03-19T03:13:58;99995.13;;;6.06;55.77
41467;BME280;27205;53.690;19.948;2023-03-19T03:19:03;100001.16;;;5.98;56.26
41467;BME280;27205;53.690;19.948;2023-03-19T03:24:07;100007.20;;;5.93;56.29
41467;BME280;27205;53.690;19.948;2023-03-19T03:29:11;100009.03;;;5.96;56.09
41467;BME280;27205;53.690;19.948;2023-03-19T03:34:14;100008.52;;;5.87;56.15
41467;BME280;27205;53.690;19.948;2023-03-19T03:39:18;100010.92;;;5.85;56.45
41467;BME280;27205;53.690;19.948;2023-03-19T03:44:21;100015.72;;;5.92;56.74
41467;BME280;27205;53.690;19.948;2023-03-19T03:49:24;100017.52;;;5.96;56.87
41467;BME280;27205;53.690;19.948;2023-03-19T03:54:28;100022.01;;;6.06;56.95
41467;BME280;27205;53.690;19.948;2023-03-19T03:59:31;100018.30;;;6.12;57.10
41467;BME280;27205;53.690;19.948;2023-03-19T04:04:35;100013.56;;;6.16;56.93
41467;BME280;27205;53.690;19.948;2023-03-19T04:09:38;100006.84;;;6.11;57.05
41467;BME280;27205;53.690;19.948;2023-03-19T04:14:41;100006.39;;;6.13;57.11
41467;BME280;27205;53.690;19.948;2023-03-19T04:19:44;100008.86;;;6.14;57.23
41467;BME280;27205;53.690;19.948;2023-03-19T04:24:48;100010.09;;;6.17;57.65
41467;BME280;27205;53.690;19.948;2023-03-19T04:29:51;100009.80;;;6.19;57.59
41467;BME280;27205;53.690;19.948;2023-03-19T04:34:54;100011.33;;;6.25;57.54
41467;BME280;27205;53.690;19.948;2023-03-19T04:40:00;100006.65;;;6.29;57.91
41467;BME280;27205;53.690;19.948;2023-03-19T04:45:04;100005.67;;;6.34;57.85
41467;BME280;27205;53.690;19.948;2023-03-19T04:50:09;100003.17;;;6.33;57.87
41467;BME280;27205;53.690;19.948;2023-03-19T04:55:12;99993.29;;;6.37;58.05
41467;BME280;27205;53.690;19.948;2023-03-19T05:00:17;99991.76;;;6.43;58.08
41467;BME280;27205;53.690;19.948;2023-03-19T05:05:20;99988.48;;;6.47;58.18
41467;BME280;27205;53.690;19.948;2023-03-19T05:10:24;99990.38;;;6.47;58.23
41467;BME280;27205;53.690;19.948;2023-03-19T05:15:27;99995.03;;;6.50;58.20
41467;BME280;27205;53.690;19.948;2023-03-19T05:20:30;99998.88;;;6.59;58.34
41467;BME280;27205;53.690;19.948;2023-03-19T05:25:34;100007.75;;;6.67;58.50
41467;BME280;27205;53.690;19.948;2023-03-19T05:30:38;100005.13;;;6.75;58.59
41467;BME280;27205;53.690;19.948;2023-03-19T05:35:41;100001.27;;;6.83;58.40
41467;BME280;27205;53.690;19.948;2023-03-19T05:40:45;100001.77;;;7.02;58.69
41467;BME280;27205;53.690;19.948;2023-03-19T05:45:50;100009.73;;;7.18;58.44
41467;BME280;27205;53.690;19.948;2023-03-19T05:50:57;100009.56;;;7.32;58.71
41467;BME280;27205;53.690;19.948;2023-03-19T05:56:01;100009.00;;;7.40;58.73
41467;BME280;27205;53.690;19.948;2023-03-19T06:01:04;100017.02;;;7.55;58.94
41467;BME280;27205;53.690;19.948;2023-03-19T06:06:08;100016.14;;;7.75;59.04
41467;BME280;27205;53.690;19.948;2023-03-19T06:11:11;100016.42;;;7.93;59.03
41467;BME280;27205;53.690;19.948;2023-03-19T06:16:14;100014.77;;;8.07;58.89
41467;BME280;27205;53.690;19.948;2023-03-19T06:21:18;100022.58;;;8.24;59.40
41467;BME280;27205;53.690;19.948;2023-03-19T06:26:23;100022.31;;;8.46;59.42
41467;BME280;27205;53.690;19.948;2023-03-19T06:31:26;100020.55;;;8.60;58.95
41467;BME280;27205;53.690;19.948;2023-03-19T06:36:30;100025.52;;;8.65;58.88
41467;BME280;27205;53.690;19.948;2023-03-19T06:41:33;100028.44;;;8.80;59.03
41467;BME280;27205;53.690;19.948;2023-03-19T06:46:37;100035.77;;;8.88;58.56
41467;BME280;27205;53.690;19.948;2023-03-19T06:51:40;100036.59;;;8.89;58.88
41467;BME280;27205;53.690;19.948;2023-03-19T06:56:44;100039.94;;;9.01;59.05
41467;BME280;27205;53.690;19.948;2023-03-19T07:01:48;100043.30;;;9.14;59.02
41467;BME280;27205;53.690;19.948;2023-03-19T07:06:52;100041.56;;;9.21;59.13
41467;BME280;27205;53.690;19.948;2023-03-19T07:11:55;100043.08;;;9.39;58.83
41467;BME280;27205;53.690;19.948;2023-03-19T07:16:58;100047.38;;;9.53;58.73
41467;BME280;27205;53.690;19.948;2023-03-19T07:22:02;100048.77;;;9.69;58.67
41467;BME280;27205;53.690;19.948;2023-03-19T07:27:05;100051.48;;;9.85;58.91
41467;BME280;27205;53.690;19.948;2023-03-19T07:32:10;100056.39;;;10.21;58.99
41467;BME280;27205;53.690;19.948;2023-03-19T07:37:13;100069.86;;;10.63;59.09
41467;BME280;27205;53.690;19.948;2023-03-19T07:42:16;100079.37;;;11.11;58.78
41467;BME280;27205;53.690;19.948;2023-03-19T07:47:20;100078.61;;;11.45;59.08
41467;BME280;27205;53.690;19.948;2023-03-19T07:52:31;100084.54;;;11.78;58.49
41467;BME280;27205;53.690;19.948;2023-03-19T07:57:34;100086.16;;;12.13;59.11
41467;BME280;27205;53.690;19.948;2023-03-19T08:02:38;100093.57;;;12.57;58.53
41467;BME280;27205;53.690;19.948;2023-03-19T08:07:43;100094.20;;;12.96;58.74
41467;BME280;27205;53.690;19.948;2023-03-19T08:12:48;100094.55;;;13.29;58.39
41467;BME280;27205;53.690;19.948;2023-03-19T08:18:01;100094.45;;;13.42;57.95
41467;BME280;27205;53.690;19.948;2023-03-19T08:23:06;100090.29;;;13.68;58.27
41467;BME280;27205;53.690;19.948;2023-03-19T08:28:09;100096.92;;;13.96;58.01
41467;BME280;27205;53.690;19.948;2023-03-19T08:33:13;100097.85;;;14.22;57.92
41467;BME280;27205;53.690;19.948;2023-03-19T08:38:16;100096.73;;;14.46;57.92
41467;BME280;27205;53.690;19.948;2023-03-19T08:43:20;100098.23;;;14.59;57.58
41467;BME280;27205;53.690;19.948;2023-03-19T08:48:23;100099.85;;;14.65;57.74
41467;BME280;27205;53.690;19.948;2023-03-19T08:53:27;100097.73;;;14.71;57.65
41467;BME280;27205;53.690;19.948;2023-03-19T08:58:31;100087.95;;;14.71;57.50
41467;BME280;27205;53.690;19.948;2023-03-19T09:03:37;100091.30;;;14.68;57.61
41467;BME280;27205;53.690;19.948;2023-03-19T09:08:41;100089.74;;;14.61;57.27
41467;BME280;27205;53.690;19.948;2023-03-19T09:13:44;100082.02;;;14.59;56.85
41467;BME280;27205;53.690;19.948;2023-03-19T09:18:48;100075.19;;;14.55;56.73
41467;BME280;27205;53.690;19.948;2023-03-19T09:23:52;100079.10;;;14.61;56.72
41467;BME280;27205;53.690;19.948;2023-03-19T09:28:55;100076.02;;;14.75;56.57
41467;BME280;27205;53.690;19.948;2023-03-19T09:33:59;100078.83;;;14.88;56.81
41467;BME280;27205;53.690;19.948;2023-03-19T09:39:04;100081.23;;;15.06;56.55
41467;BME280;27205;53.690;19.948;2023-03-19T09:44:15;100077.43;;;15.19;56.48
41467;BME280;27205;53.690;19.948;2023-03-19T09:49:29;100080.08;;;15.32;55.78
41467;BME280;27205;53.690;19.948;2023-03-19T09:54:41;100084.44;;;15.48;55.86
41467;BME280;27205;53.690;19.948;2023-03-19T09:59:46;100080.73;;;15.68;55.87
41467;BME280;27205;53.690;19.948;2023-03-19T10:15:28;100076.64;;;16.07;55.66
41467;BME280;27205;53.690;19.948;2023-03-19T10:25:42;100068.45;;;16.06;55.99
41467;BME280;27205;53.690;19.948;2023-03-19T10:30:57;100062.94;;;15.91;55.64
41467;BME280;27205;53.690;19.948;2023-03-19T10:36:09;100054.45;;;15.92;55.90
41467;BME280;27205;53.690;19.948;2023-03-19T10:46:42;100050.63;;;15.96;55.90
41467;BME280;27205;53.690;19.948;2023-03-19T10:51:45;100043.61;;;16.05;55.47
41467;BME280;27205;53.690;19.948;2023-03-19T10:56:49;100037.70;;;16.21;55.28
41467;BME280;27205;53.690;19.948;2023-03-19T11:02:01;100036.59;;;16.21;54.84
41467;BME280;27205;53.690;19.948;2023-03-19T11:07:13;100031.09;;;16.29;54.63
41467;BME280;27205;53.690;19.948;2023-03-19T11:12:32;100028.52;;;16.43;54.14
41467;BME280;27205;53.690;19.948;2023-03-19T11:17:38;100033.34;;;16.62;53.66
41467;BME280;27205;53.690;19.948;2023-03-19T11:22:42;100033.09;;;16.75;53.45
41467;BME280;27205;53.690;19.948;2023-03-19T11:27:56;100029.16;;;16.80;52.84
41467;BME280;27205;53.690;19.948;2023-03-19T11:43:47;100036.81;;;17.03;52.14
41467;BME280;27205;53.690;19.948;2023-03-19T11:49:00;100028.59;;;17.08;51.48
41467;BME280;27205;53.690;19.948;2023-03-19T11:54:10;100022.94;;;17.06;50.84
41467;BME280;27205;53.690;19.948;2023-03-19T12:20:13;99998.92;;;17.58;47.97
41467;BME280;27205;53.690;19.948;2023-03-19T12:36:01;99990.54;;;17.97;46.38
41467;BME280;27205;53.690;19.948;2023-03-19T12:41:12;99989.64;;;17.99;45.19
41467;BME280;27205;53.690;19.948;2023-03-19T12:51:49;99986.31;;;18.30;44.72
41467;BME280;27205;53.690;19.948;2023-03-19T12:57:05;99988.70;;;18.55;44.61
41467;BME280;27205;53.690;19.948;2023-03-19T13:02:41;99988.92;;;18.72;45.01
41467;BME280;27205;53.690;19.948;2023-03-19T13:08:05;99988.05;;;18.86;44.35
41467;BME280;27205;53.690;19.948;2023-03-19T13:24:26;99984.38;;;19.40;43.50
41467;BME280;27205;53.690;19.948;2023-03-19T13:29:33;99982.46;;;19.60;43.45
41467;BME280;27205;53.690;19.948;2023-03-19T13:34:38;99972.09;;;19.91;43.23
41467;BME280;27205;53.690;19.948;2023-03-19T13:39:44;99973.52;;;20.13;42.78
41467;BME280;27205;53.690;19.948;2023-03-19T13:44:51;99970.78;;;20.27;43.10
41467;BME280;27205;53.690;19.948;2023-03-19T14:05:47;99955.70;;;20.82;41.28
41467;BME280;27205;53.690;19.948;2023-03-19T14:11:01;99950.96;;;21.02;41.62
41467;BME280;27205;53.690;19.948;2023-03-19T14:16:28;99952.75;;;21.32;41.88
41467;BME280;27205;53.690;19.948;2023-03-19T14:26:57;99951.79;;;21.59;41.77
41467;BME280;27205;53.690;19.948;2023-03-19T14:32:20;99954.45;;;21.72;42.05
41467;BME280;27205;53.690;19.948;2023-03-19T14:53:18;99948.73;;;21.58;42.23
41467;BME280;27205;53.690;19.948;2023-03-19T14:58:25;99948.76;;;21.50;42.22
41467;BME280;27205;53.690;19.948;2023-03-19T15:03:31;99949.26;;;21.34;42.31
41467;BME280;27205;53.690;19.948;2023-03-19T15:08:37;99953.38;;;21.06;42.63
41467;BME280;27205;53.690;19.948;2023-03-19T15:19:08;99946.27;;;20.56;42.82
41467;BME280;27205;53.690;19.948;2023-03-19T15:24:15;99944.10;;;20.34;42.50
41467;BME280;27205;53.690;19.948;2023-03-19T15:29:29;99945.39;;;20.08;42.89
41467;BME280;27205;53.690;19.948;2023-03-19T15:34:33;99941.82;;;19.83;42.79
41467;BME280;27205;53.690;19.948;2023-03-19T15:39:41;99944.30;;;19.68;42.98
41467;BME280;27205;53.690;19.948;2023-03-19T15:44:48;99951.25;;;19.41;42.98
41467;BME280;27205;53.690;19.948;2023-03-19T15:50:07;99950.29;;;19.15;42.91
41467;BME280;27205;53.690;19.948;2023-03-19T15:55:15;99951.67;;;18.90;43.15
41467;BME280;27205;53.690;19.948;2023-03-19T16:00:19;99950.18;;;18.57;43.15
41467;BME280;27205;53.690;19.948;2023-03-19T16:05:27;99944.48;;;18.02;43.77
41467;BME280;27205;53.690;19.948;2023-03-19T16:10:36;99943.96;;;17.65;43.75
41467;BME280;27205;53.690;19.948;2023-03-19T16:15:45;99953.86;;;17.31;43.93
41467;BME280;27205;53.690;19.948;2023-03-19T16:21:08;99953.59;;;17.03;44.52
41467;BME280;27205;53.690;19.948;2023-03-19T16:26:52;99957.02;;;16.70;44.69
41467;BME280;27205;53.690;19.948;2023-03-19T16:32:00;99963.02;;;16.24;44.93
41467;BME280;27205;53.690;19.948;2023-03-19T16:42:39;99966.69;;;15.43;45.95
41467;BME280;27205;53.690;19.948;2023-03-19T16:52:50;99971.52;;;14.98;46.22
41467;BME280;27205;53.690;19.948;2023-03-19T16:57:59;99972.11;;;14.71;46.71
41467;BME280;27205;53.690;19.948;2023-03-19T17:03:11;99974.30;;;14.46;46.69
41467;BME280;27205;53.690;19.948;2023-03-19T17:08:15;99975.51;;;14.05;47.20
41467;BME280;27205;53.690;19.948;2023-03-19T17:13:29;99971.38;;;13.75;47.52
41467;BME280;27205;53.690;19.948;2023-03-19T17:18:35;99969.90;;;13.62;47.55
41467;BME280;27205;53.690;19.948;2023-03-19T17:23:39;99976.02;;;13.50;47.90
41467;BME280;27205;53.690;19.948;2023-03-19T17:28:43;99977.97;;;13.28;48.20
41467;BME280;27205;53.690;19.948;2023-03-19T17:33:46;99984.28;;;13.40;48.22
41467;BME280;27205;53.690;19.948;2023-03-19T17:38:49;99985.14;;;13.37;48.14
41467;BME280;27205;53.690;19.948;2023-03-19T17:43:56;99986.29;;;13.30;48.55
41467;BME280;27205;53.690;19.948;2023-03-19T17:49:00;99989.80;;;13.17;48.89
41467;BME280;27205;53.690;19.948;2023-03-19T17:54:08;99990.31;;;13.11;49.03
41467;BME280;27205;53.690;19.948;2023-03-19T17:59:13;99983.70;;;13.04;49.49
41467;BME280;27205;53.690;19.948;2023-03-19T18:04:17;99976.84;;;12.99;49.65
41467;BME280;27205;53.690;19.948;2023-03-19T18:09:22;99974.21;;;12.94;49.45
41467;BME280;27205;53.690;19.948;2023-03-19T18:14:26;99976.56;;;12.90;49.74
41467;BME280;27205;53.690;19.948;2023-03-19T18:19:32;99974.99;;;12.86;49.96
41467;BME280;27205;53.690;19.948;2023-03-19T18:24:35;99969.96;;;12.79;50.01
41467;BME280;27205;53.690;19.948;2023-03-19T18:29:38;99973.06;;;12.76;50.24
41467;BME280;27205;53.690;19.948;2023-03-19T18:34:42;99970.14;;;12.69;50.55
41467;BME280;27205;53.690;19.948;2023-03-19T18:39:46;99971.09;;;12.60;50.61
41467;BME280;27205;53.690;19.948;2023-03-19T18:44:49;99971.98;;;12.47;50.89
41467;BME280;27205;53.690;19.948;2023-03-19T18:49:53;99970.39;;;12.46;51.18
41467;BME280;27205;53.690;19.948;2023-03-19T18:54:59;99971.39;;;12.41;51.31
41467;BME280;27205;53.690;19.948;2023-03-19T19:00:03;99970.10;;;12.36;51.54
41467;BME280;27205;53.690;19.948;2023-03-19T19:05:13;99971.77;;;12.30;51.65
41467;BME280;27205;53.690;19.948;2023-03-19T19:10:17;99974.30;;;12.25;51.87
41467;BME280;27205;53.690;19.948;2023-03-19T19:15:28;99976.27;;;12.25;52.02
41467;BME280;27205;53.690;19.948;2023-03-19T19:20:34;99976.36;;;12.22;52.18
41467;BME280;27205;53.690;19.948;2023-03-19T19:25:38;99974.77;;;12.22;52.30
41467;BME280;27205;53.690;19.948;2023-03-19T19:30:43;99966.86;;;12.24;52.32
41467;BME280;27205;53.690;19.948;2023-03-19T19:35:47;99965.39;;;12.26;52.49
41467;BME280;27205;53.690;19.948;2023-03-19T19:40:53;99964.50;;;12.28;52.49
41467;BME280;27205;53.690;19.948;2023-03-19T19:45:58;99963.34;;;12.30;52.76
41467;BME280;27205;53.690;19.948;2023-03-19T19:51:01;99969.55;;;12.32;52.84
41467;BME280;27205;53.690;19.948;2023-03-19T19:56:22;99970.61;;;12.30;52.97
41467;BME280;27205;53.690;19.948;2023-03-19T20:01:26;99971.58;;;12.27;53.10
41467;BME280;27205;53.690;19.948;2023-03-19T20:06:30;99973.70;;;12.28;52.86
41467;BME280;27205;53.690;19.948;2023-03-19T20:11:34;99977.77;;;12.25;53.04
41467;BME280;27205;53.690;19.948;2023-03-19T20:16:37;99977.85;;;12.16;53.33
41467;BME280;27205;53.690;19.948;2023-03-19T20:21:41;99979.95;;;12.07;53.29
41467;BME280;27205;53.690;19.948;2023-03-19T20:26:44;99977.59;;;12.00;53.35
41467;BME280;27205;53.690;19.948;2023-03-19T20:31:48;99976.88;;;11.93;53.49
41467;BME280;27205;53.690;19.948;2023-03-19T20:36:52;99977.58;;;11.92;53.48
41467;BME280;27205;53.690;19.948;2023-03-19T20:41:56;99978.06;;;11.83;53.47
41467;BME280;27205;53.690;19.948;2023-03-19T20:46:59;99977.15;;;11.75;53.66
41467;BME280;27205;53.690;19.948;2023-03-19T20:52:03;99977.19;;;11.69;53.76
41467;BME280;27205;53.690;19.948;2023-03-19T20:57:15;99975.48;;;11.61;53.71
41467;BME280;27205;53.690;19.948;2023-03-19T21:02:21;99972.40;;;11.54;53.97
41467;BME280;27205;53.690;19.948;2023-03-19T21:07:30;99971.10;;;11.47;53.74
41467;BME280;27205;53.690;19.948;2023-03-19T21:12:35;99968.70;;;11.42;53.96
41467;BME280;27205;53.690;19.948;2023-03-19T21:17:39;99967.55;;;11.39;54.25
41467;BME280;27205;53.690;19.948;2023-03-19T21:22:44;99968.56;;;11.37;54.42
41467;BME280;27205;53.690;19.948;2023-03-19T21:27:51;99965.23;;;11.33;54.60
41467;BME280;27205;53.690;19.948;2023-03-19T21:32:55;99964.98;;;11.25;54.86
41467;BME280;27205;53.690;19.948;2023-03-19T21:37:59;99964.54;;;11.12;54.94
41467;BME280;27205;53.690;19.948;2023-03-19T21:43:03;99963.70;;;11.03;54.75
41467;BME280;27205;53.690;19.948;2023-03-19T21:48:30;99959.94;;;10.95;55.26
41467;BME280;27205;53.690;19.948;2023-03-19T21:53:34;99956.38;;;10.92;55.29
41467;BME280;27205;53.690;19.948;2023-03-19T21:58:37;99957.65;;;10.88;55.32
41467;BME280;27205;53.690;19.948;2023-03-19T22:03:41;99952.80;;;10.83;55.39
41467;BME280;27205;53.690;19.948;2023-03-19T22:08:45;99948.16;;;10.77;55.51
41467;BME280;27205;53.690;19.948;2023-03-19T22:13:50;99947.63;;;10.71;55.45
41467;BME280;27205;53.690;19.948;2023-03-19T22:18:53;99941.36;;;10.61;55.79
41467;BME280;27205;53.690;19.948;2023-03-19T22:23:57;99939.40;;;10.49;56.02
41467;BME280;27205;53.690;19.948;2023-03-19T22:34:17;99938.63;;;10.22;56.35
41467;BME280;27205;53.690;19.948;2023-03-19T22:39:20;99936.39;;;10.16;56.08
41467;BME280;27205;53.690;19.948;2023-03-19T22:44:28;99936.27;;;10.06;56.50
41467;BME280;27205;53.690;19.948;2023-03-19T22:49:32;99935.92;;;9.96;56.53
41467;BME280;27205;53.690;19.948;2023-03-19T22:54:35;99932.32;;;9.91;56.71
41467;BME280;27205;53.690;19.948;2023-03-19T22:59:40;99925.63;;;9.86;56.91
41467;BME280;27205;53.690;19.948;2023-03-19T23:04:44;99930.33;;;9.83;57.19
41467;BME280;27205;53.690;19.948;2023-03-19T23:09:48;99939.23;;;9.78;57.24
41467;BME280;27205;53.690;19.948;2023-03-19T23:14:51;99928.77;;;9.63;57.75
41467;BME280;27205;53.690;19.948;2023-03-19T23:19:55;99928.43;;;9.46;57.93
41467;BME280;27205;53.690;19.948;2023-03-19T23:24:59;99921.79;;;9.34;58.11
41467;BME280;27205;53.690;19.948;2023-03-19T23:30:03;99918.34;;;9.22;58.35
41467;BME280;27205;53.690;19.948;2023-03-19T23:35:17;99918.23;;;9.11;58.44
41467;BME280;27205;53.690;19.948;2023-03-19T23:40:26;99913.80;;;9.10;58.36
41467;BME280;27205;53.690;19.948;2023-03-19T23:50:36;99914.22;;;8.95;58.93
41467;BME280;27205;53.690;19.948;2023-03-19T23:55:40;99908.89;;;8.88;58.80
